createdAt,value
2019-05-01T00:01:03.883Z,59.40
2019-05-01T00:03:36.082Z,59.40
2019-05-01T00:06:05.583Z,59.40
2019-05-01T00:08:33.442Z,59.10
2019-05-01T00:11:01.482Z,59.00
2019-05-01T00:13:30.373Z,59.20
2019-05-01T00:15:58.591Z,59.10
2019-05-01T00:18:26.684Z,59.30
2019-05-01T00:20:54.961Z,59.10
2019-05-01T00:23:23.060Z,59.10
2019-05-01T00:25:52.211Z,59.00
2019-05-01T00:28:20.265Z,59.20
2019-05-01T00:30:48.255Z,59.20
2019-05-01T00:33:16.081Z,59.30
2019-05-01T00:35:44.196Z,59.60
2019-05-01T00:38:12.273Z,59.80
2019-05-01T00:40:40.138Z,60.00
2019-05-01T00:43:09.100Z,60.20
2019-05-01T00:45:36.963Z,60.40
2019-05-01T00:48:05.012Z,60.70
2019-05-01T00:50:32.937Z,60.60
2019-05-01T00:53:01.228Z,60.80
2019-05-01T00:55:39.604Z,60.80
2019-05-01T00:58:25.891Z,60.80
2019-05-01T01:00:55.500Z,61.00
2019-05-01T01:03:23.582Z,61.20
2019-05-01T01:05:51.491Z,61.30
2019-05-01T01:08:19.415Z,61.50
2019-05-01T01:10:47.314Z,61.80
2019-05-01T01:13:15.178Z,62.10
2019-05-01T01:15:43.021Z,62.30
2019-05-01T01:18:14.180Z,62.30
2019-05-01T01:20:42.027Z,62.40
2019-05-01T01:23:10.115Z,62.60
2019-05-01T01:25:38.127Z,62.80
2019-05-01T01:28:06.135Z,63.20
2019-05-01T01:30:34.096Z,63.40
2019-05-01T01:33:01.946Z,63.60
2019-05-01T01:35:29.774Z,64.00
2019-05-01T01:37:57.681Z,64.30
2019-05-01T01:40:25.707Z,64.50
2019-05-01T01:42:55.164Z,64.80
2019-05-01T01:45:33.660Z,64.80
2019-05-01T01:48:17.758Z,65.20
2019-05-01T01:50:45.794Z,65.70
2019-05-01T01:53:13.745Z,66.10
2019-05-01T01:55:41.953Z,66.50
2019-05-01T01:58:09.951Z,66.70
2019-05-01T02:00:39.451Z,67.00
2019-05-01T02:03:09.072Z,67.20
2019-05-01T02:05:38.609Z,67.30
2019-05-01T02:08:08.844Z,67.60
2019-05-01T02:10:42.881Z,67.60
2019-05-01T02:13:05.820Z,67.70
2019-05-01T02:15:33.691Z,67.70
2019-05-01T02:18:01.901Z,67.70
2019-05-01T02:20:29.720Z,68.00
2019-05-01T02:22:57.574Z,68.00
2019-05-01T02:25:25.651Z,68.40
2019-05-01T02:28:11.699Z,68.60
2019-05-01T02:30:41.388Z,68.80
2019-05-01T02:33:10.146Z,69.30
2019-05-01T02:35:38.191Z,69.00
2019-05-01T02:38:07.635Z,69.40
2019-05-01T02:40:37.133Z,69.40
2019-05-01T02:43:05.134Z,69.40
2019-05-01T02:45:33.173Z,69.70
2019-05-01T02:48:01.162Z,69.80
2019-05-01T02:50:29.209Z,70.00
2019-05-01T02:52:57.178Z,70.10
2019-05-01T02:55:29.692Z,70.20
2019-05-01T02:57:57.557Z,70.30
2019-05-01T03:00:25.633Z,70.40
2019-05-01T03:02:53.621Z,70.50
2019-05-01T03:05:21.625Z,70.60
2019-05-01T03:07:49.519Z,70.70
2019-05-01T03:10:17.525Z,70.90
2019-05-01T03:12:45.400Z,70.80
2019-05-01T03:15:13.277Z,71.00
2019-05-01T03:17:45.547Z,71.20
2019-05-01T03:20:20.737Z,71.00
2019-05-01T03:22:50.220Z,71.10
2019-05-01T03:25:26.769Z,71.10
2019-05-01T03:27:54.660Z,71.00
2019-05-01T03:30:22.641Z,70.90
2019-05-01T03:32:50.693Z,70.90
2019-05-01T03:35:18.820Z,71.10
2019-05-01T03:37:46.846Z,71.30
2019-05-01T03:40:16.348Z,71.30
2019-05-01T03:42:44.368Z,71.30
2019-05-01T03:45:13.807Z,71.30
2019-05-01T03:47:41.800Z,71.20
2019-05-01T03:50:09.950Z,71.00
2019-05-01T03:52:37.930Z,70.50
2019-05-01T03:55:05.921Z,69.90
2019-05-01T03:57:33.920Z,69.40
2019-05-01T04:00:02.006Z,68.70
2019-05-01T04:02:34.757Z,68.10
2019-05-01T04:05:02.853Z,67.40
2019-05-01T04:07:30.758Z,67.40
2019-05-01T04:09:58.731Z,67.40
2019-05-01T04:12:26.657Z,66.60
2019-05-01T04:14:54.503Z,66.30
2019-05-01T04:17:40.161Z,66.40
2019-05-01T04:20:08.282Z,66.30
2019-05-01T04:22:36.302Z,66.20
2019-05-01T04:25:06.661Z,65.70
2019-05-01T04:27:36.145Z,65.10
2019-05-01T04:30:19.806Z,64.70
2019-05-01T04:32:53.333Z,64.20
2019-05-01T04:35:23.188Z,63.90
2019-05-01T04:37:51.353Z,63.10
2019-05-01T04:40:19.520Z,63.10
2019-05-01T04:42:47.415Z,62.40
2019-05-01T04:45:15.410Z,61.60
2019-05-01T04:47:43.408Z,61.50
2019-05-01T04:50:11.426Z,61.30
2019-05-01T04:52:39.402Z,60.60
2019-05-01T04:55:07.385Z,60.10
2019-05-01T04:57:35.387Z,59.70
2019-05-01T05:00:04.719Z,59.60
2019-05-01T05:02:34.306Z,59.10
2019-05-01T05:05:02.366Z,58.40
2019-05-01T05:07:30.180Z,58.00
2019-05-01T05:09:58.149Z,57.60
2019-05-01T05:12:33.822Z,56.80
2019-05-01T05:15:03.403Z,56.50
2019-05-01T05:17:31.522Z,56.40
2019-05-01T05:19:59.543Z,56.30
2019-05-01T05:22:29.012Z,56.00
2019-05-01T05:24:56.942Z,55.40
2019-05-01T05:27:24.836Z,55.20
2019-05-01T05:29:54.027Z,55.00
2019-05-01T05:32:22.026Z,54.70
2019-05-01T05:34:49.820Z,54.30
2019-05-01T05:37:20.061Z,53.80
2019-05-01T05:39:48.631Z,52.90
2019-05-01T05:42:16.585Z,52.50
2019-05-01T05:44:45.643Z,51.90
2019-05-01T05:47:13.626Z,51.50
2019-05-01T05:49:41.457Z,51.00
2019-05-01T05:52:28.454Z,50.40
2019-05-01T05:55:06.541Z,50.00
2019-05-01T05:57:48.324Z,48.80
2019-05-01T06:00:18.059Z,48.50
2019-05-01T06:03:04.375Z,48.10
2019-05-01T06:05:51.967Z,48.10
2019-05-01T06:08:21.437Z,47.50
2019-05-01T06:10:53.561Z,47.10
2019-05-01T06:13:24.436Z,46.50
2019-05-01T06:16:12.283Z,46.50
2019-05-01T06:18:45.636Z,44.70
2019-05-01T06:21:20.756Z,43.80
2019-05-01T06:23:57.823Z,43.00
2019-05-01T06:26:37.753Z,40.30
2019-05-01T06:29:05.289Z,37.50
2019-05-01T06:31:33.171Z,32.60
2019-05-01T06:34:01.004Z,29.00
2019-05-01T06:36:28.842Z,27.50
2019-05-01T06:38:56.795Z,26.90
2019-05-01T06:41:28.632Z,25.60
2019-05-01T06:43:56.969Z,25.00
2019-05-01T06:46:41.975Z,25.10
2019-05-01T06:49:14.035Z,25.80
2019-05-01T06:51:43.536Z,26.30
2019-05-01T06:54:16.208Z,26.10
2019-05-01T06:56:42.460Z,25.00
2019-05-01T06:59:10.513Z,23.20
2019-05-01T07:01:38.482Z,20.60
2019-05-01T07:04:06.544Z,18.60
2019-05-01T07:06:34.793Z,18.00
2019-05-01T07:09:02.623Z,17.10
2019-05-01T07:11:30.570Z,16.00
2019-05-01T07:13:58.613Z,15.00
2019-05-01T07:16:26.442Z,14.30
2019-05-01T07:18:58.433Z,13.10
2019-05-01T07:21:27.703Z,12.90
2019-05-01T07:23:54.942Z,11.90
2019-05-01T07:26:22.926Z,11.40
2019-05-01T07:28:52.363Z,11.60
2019-05-01T07:31:20.284Z,11.50
2019-05-01T07:33:51.308Z,11.20
2019-05-01T07:36:17.633Z,11.10
2019-05-01T07:38:45.434Z,11.30
2019-05-01T07:41:13.235Z,11.30
2019-05-01T07:43:45.514Z,9.90
2019-05-01T07:46:18.348Z,9.70
2019-05-01T07:48:44.525Z,9.80
2019-05-01T07:51:12.529Z,10.10
2019-05-01T07:53:40.501Z,9.80
2019-05-01T07:56:08.260Z,9.00
2019-05-01T07:58:36.287Z,8.90
2019-05-01T08:01:12.914Z,9.00
2019-05-01T08:03:42.732Z,9.30
2019-05-01T08:06:10.880Z,9.50
2019-05-01T08:08:39.587Z,9.50
2019-05-01T08:11:10.317Z,9.60
2019-05-01T08:13:37.901Z,9.20
2019-05-01T08:16:07.253Z,8.70
2019-05-01T08:18:39.490Z,8.90
2019-05-01T08:21:14.473Z,8.40
2019-05-01T08:23:42.657Z,8.50
2019-05-01T08:26:11.767Z,8.50
2019-05-01T08:29:03.048Z,8.60
2019-05-01T08:31:39.401Z,8.40
2019-05-01T08:34:11.819Z,8.20
2019-05-01T08:36:42.695Z,8.20
2019-05-01T08:39:10.809Z,7.90
2019-05-01T08:41:39.755Z,8.10
2019-05-01T08:44:09.076Z,8.50
2019-05-01T08:46:46.948Z,8.30
2019-05-01T08:49:22.544Z,8.00
2019-05-01T08:51:51.124Z,8.10
2019-05-01T08:54:19.563Z,8.10
2019-05-01T08:56:48.171Z,8.20
2019-05-01T08:59:19.425Z,8.20
2019-05-01T09:01:50.595Z,7.60
2019-05-01T09:04:18.855Z,7.90
2019-05-01T09:06:47.472Z,7.70
2019-05-01T09:09:16.042Z,7.50
2019-05-01T09:11:44.560Z,7.40
2019-05-01T09:14:13.374Z,7.30
2019-05-01T09:16:42.982Z,7.40
2019-05-01T09:19:11.695Z,7.10
2019-05-01T09:21:40.375Z,7.30
2019-05-01T09:24:08.880Z,7.10
2019-05-01T09:26:45.246Z,6.90
2019-05-01T09:29:19.979Z,7.00
2019-05-01T09:31:49.425Z,7.00
2019-05-01T09:34:19.262Z,7.00
2019-05-01T09:36:48.115Z,6.80
2019-05-01T09:39:17.603Z,6.90
2019-05-01T09:41:47.332Z,6.60
2019-05-01T09:44:16.806Z,6.40
2019-05-01T09:46:45.506Z,6.80
2019-05-01T09:49:17.761Z,6.40
2019-05-01T09:52:02.116Z,6.50
2019-05-01T09:54:42.978Z,6.40
2019-05-01T09:57:10.774Z,6.70
2019-05-01T09:59:39.253Z,6.80
2019-05-01T10:02:09.144Z,7.00
2019-05-01T10:04:37.812Z,6.80
2019-05-01T10:07:07.993Z,6.80
2019-05-01T10:09:36.503Z,6.90
2019-05-01T10:12:05.207Z,6.90
2019-05-01T10:14:36.298Z,6.80
2019-05-01T10:17:04.209Z,7.00
2019-05-01T10:19:32.800Z,7.20
2019-05-01T10:22:02.418Z,7.10
2019-05-01T10:24:37.282Z,7.30
2019-05-01T10:27:03.871Z,7.30
2019-05-01T10:29:34.043Z,7.60
2019-05-01T10:32:16.789Z,7.80
2019-05-01T10:34:44.684Z,7.80
2019-05-01T10:37:13.283Z,8.20
2019-05-01T10:39:41.767Z,8.40
2019-05-01T10:42:09.581Z,8.40
2019-05-01T10:44:37.419Z,8.80
2019-05-01T10:47:05.379Z,9.30
2019-05-01T10:49:33.200Z,9.80
2019-05-01T10:52:13.412Z,10.30
2019-05-01T10:54:30.575Z,10.80
2019-05-01T10:57:02.896Z,10.70
2019-05-01T10:59:28.593Z,11.00
2019-05-01T11:01:58.113Z,11.90
2019-05-01T11:04:25.957Z,12.10
2019-05-01T11:06:53.797Z,12.80
2019-05-01T11:09:21.831Z,13.70
2019-05-01T11:11:50.189Z,15.30
2019-05-01T11:14:18.509Z,16.90
2019-05-01T11:16:46.711Z,17.60
2019-05-01T11:19:14.549Z,18.70
2019-05-01T11:21:42.501Z,19.80
2019-05-01T11:24:10.561Z,20.80
2019-05-01T11:26:38.609Z,21.70
2019-05-01T11:29:06.728Z,22.30
2019-05-01T11:31:50.077Z,22.60
2019-05-01T11:34:19.626Z,23.40
2019-05-01T11:37:05.819Z,23.80
2019-05-01T11:39:42.110Z,24.00
2019-05-01T11:42:16.229Z,24.60
2019-05-01T11:44:46.821Z,25.10
2019-05-01T11:47:14.635Z,25.40
2019-05-01T11:49:42.441Z,25.90
2019-05-01T11:52:10.293Z,26.50
2019-05-01T11:54:38.157Z,26.90
2019-05-01T11:57:06.149Z,27.30
2019-05-01T11:59:34.156Z,27.40
2019-05-01T12:02:02.553Z,27.60
2019-05-01T12:04:30.729Z,27.60
2019-05-01T12:06:59.150Z,27.30
2019-05-01T12:09:27.170Z,27.20
2019-05-01T12:11:57.019Z,27.60
2019-05-01T12:14:25.015Z,27.60
2019-05-01T12:16:55.812Z,27.70
2019-05-01T12:19:27.928Z,27.80
2019-05-01T12:21:58.594Z,28.00
2019-05-01T12:24:29.749Z,27.90
2019-05-01T12:26:57.567Z,28.20
2019-05-01T12:29:25.420Z,28.30
2019-05-01T12:31:53.493Z,28.70
2019-05-01T12:34:21.620Z,28.80
2019-05-01T12:36:50.094Z,28.70
2019-05-01T12:39:18.905Z,28.70
2019-05-01T12:41:53.980Z,28.70
2019-05-01T12:44:22.069Z,28.80
2019-05-01T12:46:53.155Z,29.00
2019-05-01T12:49:21.224Z,29.40
2019-05-01T12:51:50.742Z,29.60
2019-05-01T12:54:20.262Z,30.10
2019-05-01T12:56:49.940Z,30.50
2019-05-01T12:59:17.924Z,30.70
2019-05-01T13:01:45.798Z,31.90
2019-05-01T13:04:14.084Z,31.10
2019-05-01T13:06:49.120Z,30.90
2019-05-01T13:09:13.822Z,30.90
2019-05-01T13:11:42.951Z,31.10
2019-05-01T13:14:14.541Z,30.90
2019-05-01T13:16:45.744Z,31.30
2019-05-01T13:19:13.670Z,31.30
2019-05-01T13:21:41.636Z,31.40
2019-05-01T13:24:09.696Z,31.60
2019-05-01T13:26:45.175Z,31.90
2019-05-01T13:29:17.409Z,32.20
2019-05-01T13:31:47.097Z,32.50
2019-05-01T13:34:15.621Z,32.60
2019-05-01T13:36:43.601Z,33.30
2019-05-01T13:39:11.862Z,33.60
2019-05-01T13:41:40.863Z,34.10
2019-05-01T13:44:08.812Z,34.70
2019-05-01T13:46:36.958Z,35.20
2019-05-01T13:49:06.503Z,35.60
2019-05-01T13:51:34.664Z,36.40
2019-05-01T13:54:02.667Z,36.90
2019-05-01T13:56:32.909Z,37.80
2019-05-01T13:59:01.342Z,39.00
2019-05-01T14:01:31.167Z,40.30
2019-05-01T14:03:59.191Z,41.20
2019-05-01T14:06:27.230Z,42.80
2019-05-01T14:08:55.270Z,44.20
2019-05-01T14:11:23.318Z,45.20
2019-05-01T14:13:51.353Z,46.30
2019-05-01T14:16:19.382Z,47.20
2019-05-01T14:18:48.928Z,48.90
2019-05-01T14:21:27.640Z,49.40
2019-05-01T14:24:13.561Z,49.50
2019-05-01T14:26:46.861Z,49.20
2019-05-01T14:29:14.958Z,48.70
2019-05-01T14:31:42.895Z,48.00
2019-05-01T14:34:10.806Z,48.10
2019-05-01T14:36:38.737Z,48.40
2019-05-01T14:39:07.004Z,48.90
2019-05-01T14:41:34.906Z,48.70
2019-05-01T14:44:06.535Z,48.90
2019-05-01T14:46:34.500Z,49.70
2019-05-01T14:49:02.734Z,50.10
2019-05-01T14:51:30.829Z,50.50
2019-05-01T14:53:59.190Z,51.10
2019-05-01T14:56:26.980Z,51.80
2019-05-01T14:58:54.804Z,52.30
2019-05-01T15:01:22.590Z,52.40
2019-05-01T15:03:50.410Z,52.60
2019-05-01T15:06:19.877Z,53.10
2019-05-01T15:08:47.771Z,53.40
2019-05-01T15:11:15.620Z,53.70
2019-05-01T15:13:56.881Z,53.60
2019-05-01T15:16:29.011Z,53.80
2019-05-01T15:19:10.691Z,54.20
2019-05-01T15:21:38.530Z,53.80
2019-05-01T15:24:06.370Z,54.10
2019-05-01T15:26:34.153Z,54.20
2019-05-01T15:29:02.019Z,54.20
2019-05-01T15:31:29.771Z,53.60
2019-05-01T15:33:57.711Z,53.70
2019-05-01T15:36:25.504Z,53.30
2019-05-01T15:38:53.307Z,53.80
2019-05-01T15:41:38.972Z,53.70
2019-05-01T15:44:20.689Z,54.00
2019-05-01T15:46:48.483Z,53.90
2019-05-01T15:49:17.951Z,53.80
2019-05-01T15:51:45.760Z,54.30
2019-05-01T15:54:13.670Z,54.20
2019-05-01T15:56:41.611Z,54.30
2019-05-01T15:59:09.460Z,54.40
2019-05-01T16:01:37.350Z,54.60
2019-05-01T16:04:05.239Z,55.20
2019-05-01T16:06:33.031Z,54.70
2019-05-01T16:09:00.930Z,55.60
2019-05-01T16:11:33.130Z,56.10
2019-05-01T16:14:01.410Z,55.80
2019-05-01T16:16:29.282Z,55.90
2019-05-01T16:18:57.163Z,56.20
2019-05-01T16:21:25.090Z,56.50
2019-05-01T16:23:52.954Z,56.70
2019-05-01T16:26:20.950Z,55.70
2019-05-01T16:28:48.798Z,55.30
2019-05-01T16:31:16.666Z,54.40
2019-05-01T16:33:44.530Z,53.60
2019-05-01T16:36:12.432Z,53.10
2019-05-01T16:38:58.581Z,51.70
2019-05-01T16:41:28.010Z,51.30
2019-05-01T16:43:55.875Z,50.90
2019-05-01T16:46:23.890Z,50.50
2019-05-01T16:48:51.802Z,50.20
2019-05-01T16:51:19.721Z,50.20
2019-05-01T16:53:47.632Z,50.00
2019-05-01T16:56:15.464Z,49.80
2019-05-01T16:58:43.277Z,49.90
2019-05-01T17:01:12.765Z,49.90
2019-05-01T17:04:00.290Z,50.00
2019-05-01T17:06:35.678Z,50.30
2019-05-01T17:09:22.701Z,50.80
2019-05-01T17:11:50.641Z,51.10
2019-05-01T17:14:18.542Z,51.60
2019-05-01T17:16:46.449Z,52.10
2019-05-01T17:19:14.242Z,52.70
2019-05-01T17:21:42.142Z,52.90
2019-05-01T17:24:10.077Z,53.20
2019-05-01T17:26:37.910Z,53.40
2019-05-01T17:29:05.750Z,53.60
2019-05-01T17:31:33.780Z,53.80
2019-05-01T17:34:01.800Z,53.90
2019-05-01T17:36:29.639Z,54.10
2019-05-01T17:38:57.611Z,54.20
2019-05-01T17:41:27.047Z,54.50
2019-05-01T17:43:56.744Z,54.70
2019-05-01T17:46:24.503Z,55.00
2019-05-01T17:48:52.312Z,55.20
2019-05-01T17:51:20.470Z,55.50
2019-05-01T17:53:48.241Z,55.80
2019-05-01T17:56:20.555Z,56.10
2019-05-01T17:58:45.580Z,56.20
2019-05-01T18:01:33.124Z,56.60
2019-05-01T18:04:14.501Z,56.80
2019-05-01T18:06:46.493Z,57.50
2019-05-01T18:09:15.558Z,57.70
2019-05-01T18:11:47.451Z,57.20
2019-05-01T18:14:15.797Z,57.30
2019-05-01T18:16:43.635Z,57.40
2019-05-01T18:19:11.454Z,57.60
2019-05-01T18:21:41.570Z,57.60
2019-05-01T18:24:14.070Z,57.90
2019-05-01T18:26:45.001Z,58.20
2019-05-01T18:29:29.492Z,58.40
2019-05-01T18:31:57.293Z,59.50
2019-05-01T18:34:25.130Z,59.70
2019-05-01T18:37:11.325Z,59.50
2019-05-01T18:39:44.009Z,59.60
2019-05-01T18:42:15.949Z,60.00
2019-05-01T18:44:47.592Z,60.20
2019-05-01T18:47:13.689Z,60.80
2019-05-01T18:49:41.531Z,61.00
2019-05-01T18:52:09.684Z,60.90
2019-05-01T18:54:37.567Z,60.80
2019-05-01T18:57:05.726Z,60.60
2019-05-01T18:59:34.964Z,60.40
2019-05-01T19:02:02.765Z,60.40
2019-05-01T19:04:30.655Z,60.50
2019-05-01T19:06:58.566Z,60.50
2019-05-01T19:09:30.328Z,60.70
2019-05-01T19:11:56.700Z,60.80
2019-05-01T19:14:28.862Z,61.20
2019-05-01T19:16:54.562Z,61.30
2019-05-01T19:19:22.598Z,61.60
2019-05-01T19:21:50.785Z,61.90
2019-05-01T19:24:18.782Z,62.20
2019-05-01T19:26:46.895Z,62.60
2019-05-01T19:29:51.383Z,62.90
2019-05-01T19:32:22.623Z,63.20
2019-05-01T19:34:50.462Z,63.70
2019-05-01T19:37:21.924Z,63.80
2019-05-01T19:39:49.128Z,63.90
2019-05-01T19:42:21.570Z,64.10
2019-05-01T19:44:50.921Z,64.30
2019-05-01T19:47:17.810Z,64.50
2019-05-01T19:49:48.521Z,64.80
2019-05-01T19:52:18.032Z,64.90
2019-05-01T19:54:45.834Z,65.20
2019-05-01T19:57:13.722Z,66.00
2019-05-01T19:59:44.667Z,65.80
2019-05-01T20:02:17.246Z,66.10
2019-05-01T20:04:45.312Z,66.50
2019-05-01T20:07:15.839Z,66.70
2019-05-01T20:09:41.912Z,66.90
2019-05-01T20:12:09.955Z,68.00
2019-05-01T20:14:39.574Z,67.70
2019-05-01T20:17:10.019Z,68.30
2019-05-01T20:19:47.017Z,68.60
2019-05-01T20:22:16.455Z,70.00
2019-05-01T20:24:45.859Z,69.80
2019-05-01T20:27:14.158Z,70.20
2019-05-01T20:29:43.724Z,70.20
2019-05-01T20:32:13.870Z,70.50
2019-05-01T20:34:47.937Z,70.60
2019-05-01T20:37:14.268Z,70.90
2019-05-01T20:39:44.124Z,71.20
2019-05-01T20:42:14.624Z,71.50
2019-05-01T20:44:42.433Z,72.00
2019-05-01T20:47:10.281Z,72.50
2019-05-01T20:49:41.379Z,72.60
2019-05-01T20:52:08.960Z,73.10
2019-05-01T20:54:39.669Z,73.40
2019-05-01T20:57:13.488Z,73.70
2019-05-01T20:59:39.149Z,74.00
2019-05-01T21:02:09.219Z,74.30
2019-05-01T21:04:38.967Z,74.50
2019-05-01T21:07:19.942Z,74.90
2019-05-01T21:09:56.800Z,75.80
2019-05-01T21:12:18.247Z,75.60
2019-05-01T21:14:49.484Z,75.50
2019-05-01T21:17:15.775Z,76.00
2019-05-01T21:19:44.106Z,76.10
2019-05-01T21:22:14.107Z,76.30
2019-05-01T21:24:41.628Z,76.70
2019-05-01T21:27:09.466Z,77.00
2019-05-01T21:29:37.278Z,77.10
2019-05-01T21:32:05.077Z,77.10
2019-05-01T21:34:34.528Z,77.60
2019-05-01T21:37:02.398Z,77.90
2019-05-01T21:39:30.212Z,78.30
2019-05-01T21:41:59.662Z,78.60
2019-05-01T21:44:27.494Z,78.70
2019-05-01T21:46:56.431Z,79.10
2019-05-01T21:49:24.242Z,79.40
2019-05-01T21:51:53.001Z,79.60
2019-05-01T21:54:22.025Z,79.70
2019-05-01T21:56:50.211Z,80.30
2019-05-01T21:59:18.066Z,80.80
2019-05-01T22:01:46.016Z,81.60
2019-05-01T22:04:13.878Z,81.00
2019-05-01T22:06:41.696Z,81.20
2019-05-01T22:09:15.226Z,81.40
2019-05-01T22:11:40.758Z,81.70
2019-05-01T22:14:11.674Z,81.70
2019-05-01T22:16:45.000Z,81.70
2019-05-01T22:22:32.931Z,82.10
2019-05-01T22:25:02.641Z,82.40
2019-05-01T22:27:34.679Z,82.60
2019-05-01T22:30:05.796Z,83.40
2019-05-01T22:32:35.428Z,82.80
2019-05-01T22:35:08.183Z,83.00
2019-05-01T22:37:36.054Z,83.40
2019-05-01T22:40:12.579Z,83.70
2019-05-01T22:42:40.507Z,84.00
2019-05-01T22:45:10.119Z,84.40
2019-05-01T22:47:37.963Z,84.40
2019-05-01T22:50:09.799Z,84.80
2019-05-01T22:52:37.978Z,85.10
2019-05-01T22:55:06.333Z,85.30
2019-05-01T22:57:34.818Z,85.30
2019-05-01T23:00:03.843Z,85.40
2019-05-01T23:02:33.372Z,85.60
2019-05-01T23:05:01.308Z,85.60
2019-05-01T23:07:29.197Z,85.90
2019-05-01T23:09:59.258Z,86.10
2019-05-01T23:12:26.718Z,86.30
2019-05-01T23:14:54.731Z,86.30
2019-05-01T23:17:41.421Z,86.40
2019-05-01T23:20:11.904Z,87.30
2019-05-01T23:22:39.903Z,86.60
2019-05-01T23:25:08.087Z,86.70
2019-05-01T23:27:37.452Z,86.60
2019-05-01T23:30:05.414Z,86.70
2019-05-01T23:32:35.967Z,86.70
2019-05-01T23:35:06.484Z,86.60
2019-05-01T23:37:34.613Z,86.50
2019-05-01T23:40:05.145Z,86.50
2019-05-01T23:42:33.247Z,86.60
2019-05-01T23:45:01.164Z,86.70
2019-05-01T23:47:29.575Z,86.70
2019-05-01T23:49:59.240Z,86.90
2019-05-01T23:52:38.708Z,86.90
2019-05-01T23:55:12.142Z,86.90
2019-05-01T23:57:41.595Z,87.00
